Memorial Field
KHOT : now visible

Airfield :











YOU CAN JOIN US ON...

 
LOGIN :

Register | Disclaimer

   EN    FR    IT 

 









Legend :    VFR   Marginal VFR   IFR   Intensive IFR   Very Intensive IFR
Visi :
Ceiling :
>= 8 km
>= 3000ft
5 to 8 km
1000 to 3000 ft
1500m to 5 km
500 to 1000 ft
800 to 1500m
200 to 500 ft
< 800m
< 200 ft
Symbols :   Thunderstorms  Fog  Heavy snow  Heavy precipitations  Wind > 20 kt







- Airport Elevation : 540 ft
- IATA code : HOT


KHOT - Memorial Field

CURRENT METAR :
  • 210353Z AUTO 15006KT 10SM BKN085 24/22 A3012 RMK AO2 SLP192 T02390222

EXPIRED METARs :
  • 210253Z AUTO 10004KT 9SM OVC070 23/23 A3011 RMK AO2 SLP191 60000 T02330233 53013
  • 210220Z AUTO 00000KT 9SM FEW006 SCT085 BKN110 23/23 A3010 RMK AO2 T02330233
  • 210153Z AUTO 09006KT 9SM BKN075 BKN110 23/23 A3008 RMK AO2 RAB03E17 SLP181 P0000 T02330233

TAF KHOT
Valid from the 21 at 00:00 until the 22 at 00:00 UTC


202325Z 2100/2124 14008KT 6SM -SHRA OVC040
FM210600 14003KT P6SM VCSH SCT020 BKN040
TEMPO 2112/2115 4SM BR SCT010 BKN020
FM211500 17008KT P6SM SCT020 BKN040
FM211800 17010KT P6SM SCT040
No reported NOTAMs for that airfield.



MET'MAP, your aeronautical weather chart ! - Copyright ORBIFLY December 2007 - Disclaimer

ORBIFLY MET'MAP TEAM :

Programming & Development : Alexandra Zaïnal
Concept & Development : Baudouin d'Aumeries
Co-Development & Prog : Marc-Olivier Méhu
Technical & hardware support : Manuel Goepfert

Contact : metmap@orbifly.com




SOURCES & CREDITS :

   NOAA       Earth
Advisory